sensor_id;sensor_type;location;lat;lon;timestamp;P1;durP1;ratioP1;P2;durP2;ratioP2
20411;SDS011;10365;52.578;8.138;2023-05-07T00:01:46;51.60;;;27.65;;
20411;SDS011;10365;52.578;8.138;2023-05-07T00:04:11;49.95;;;28.20;;
20411;SDS011;10365;52.578;8.138;2023-05-07T00:06:36;48.78;;;28.33;;
20411;SDS011;10365;52.578;8.138;2023-05-07T00:09:02;54.80;;;29.00;;
20411;SDS011;10365;52.578;8.138;2023-05-07T00:11:28;52.08;;;30.58;;
20411;SDS011;10365;52.578;8.138;2023-05-07T00:13:54;56.97;;;31.73;;
20411;SDS011;10365;52.578;8.138;2023-05-07T00:16:19;58.60;;;31.27;;
20411;SDS011;10365;52.578;8.138;2023-05-07T00:18:44;54.15;;;31.60;;
20411;SDS011;10365;52.578;8.138;2023-05-07T00:21:10;56.65;;;31.92;;
20411;SDS011;10365;52.578;8.138;2023-05-07T00:23:36;53.03;;;31.63;;
20411;SDS011;10365;52.578;8.138;2023-05-07T00:26:01;59.95;;;32.25;;
20411;SDS011;10365;52.578;8.138;2023-05-07T00:28:26;52.15;;;30.83;;
20411;SDS011;10365;52.578;8.138;2023-05-07T00:30:52;51.25;;;30.15;;
20411;SDS011;10365;52.578;8.138;2023-05-07T00:33:17;56.20;;;32.25;;
20411;SDS011;10365;52.578;8.138;2023-05-07T00:35:43;50.72;;;30.02;;
20411;SDS011;10365;52.578;8.138;2023-05-07T00:38:09;52.63;;;28.95;;
20411;SDS011;10365;52.578;8.138;2023-05-07T00:40:34;49.67;;;29.25;;
20411;SDS011;10365;52.578;8.138;2023-05-07T00:43:00;54.83;;;30.17;;
20411;SDS011;10365;52.578;8.138;2023-05-07T00:45:26;49.85;;;28.92;;
20411;SDS011;10365;52.578;8.138;2023-05-07T00:47:53;50.10;;;29.05;;
20411;SDS011;10365;52.578;8.138;2023-05-07T00:50:19;47.05;;;28.35;;
20411;SDS011;10365;52.578;8.138;2023-05-07T00:52:45;49.35;;;28.08;;
20411;SDS011;10365;52.578;8.138;2023-05-07T00:55:10;46.15;;;27.95;;
20411;SDS011;10365;52.578;8.138;2023-05-07T00:57:37;51.47;;;27.60;;
20411;SDS011;10365;52.578;8.138;2023-05-07T01:00:03;45.42;;;28.13;;
20411;SDS011;10365;52.578;8.138;2023-05-07T01:02:29;48.30;;;26.52;;
20411;SDS011;10365;52.578;8.138;2023-05-07T01:04:55;45.45;;;26.95;;
20411;SDS011;10365;52.578;8.138;2023-05-07T01:07:20;48.13;;;26.02;;
20411;SDS011;10365;52.578;8.138;2023-05-07T01:09:46;47.83;;;27.75;;
20411;SDS011;10365;52.578;8.138;2023-05-07T01:12:11;41.78;;;26.52;;
20411;SDS011;10365;52.578;8.138;2023-05-07T01:14:38;39.38;;;25.55;;
20411;SDS011;10365;52.578;8.138;2023-05-07T01:17:03;41.95;;;25.55;;
20411;SDS011;10365;52.578;8.138;2023-05-07T01:19:29;43.58;;;26.08;;
20411;SDS011;10365;52.578;8.138;2023-05-07T01:21:56;41.67;;;26.48;;
20411;SDS011;10365;52.578;8.138;2023-05-07T01:24:24;39.60;;;23.33;;
20411;SDS011;10365;52.578;8.138;2023-05-07T01:26:50;40.28;;;24.45;;
20411;SDS011;10365;52.578;8.138;2023-05-07T01:29:16;42.30;;;25.15;;
20411;SDS011;10365;52.578;8.138;2023-05-07T01:31:43;36.75;;;24.85;;
20411;SDS011;10365;52.578;8.138;2023-05-07T01:34:08;42.70;;;24.15;;
20411;SDS011;10365;52.578;8.138;2023-05-07T01:36:34;41.03;;;24.48;;
20411;SDS011;10365;52.578;8.138;2023-05-07T01:39:02;36.88;;;22.75;;
20411;SDS011;10365;52.578;8.138;2023-05-07T01:41:27;36.30;;;23.67;;
20411;SDS011;10365;52.578;8.138;2023-05-07T01:43:53;35.88;;;22.83;;
20411;SDS011;10365;52.578;8.138;2023-05-07T01:46:19;40.00;;;22.98;;
20411;SDS011;10365;52.578;8.138;2023-05-07T01:48:45;36.22;;;23.23;;
20411;SDS011;10365;52.578;8.138;2023-05-07T01:51:11;38.33;;;23.02;;
20411;SDS011;10365;52.578;8.138;2023-05-07T01:53:37;38.38;;;22.90;;
20411;SDS011;10365;52.578;8.138;2023-05-07T01:56:02;37.47;;;22.10;;
20411;SDS011;10365;52.578;8.138;2023-05-07T01:58:28;39.92;;;22.80;;
20411;SDS011;10365;52.578;8.138;2023-05-07T02:00:54;36.30;;;23.02;;
20411;SDS011;10365;52.578;8.138;2023-05-07T02:03:19;36.80;;;22.33;;
20411;SDS011;10365;52.578;8.138;2023-05-07T02:05:52;32.38;;;21.88;;
20411;SDS011;10365;52.578;8.138;2023-05-07T02:08:38;34.83;;;22.65;;
20411;SDS011;10365;52.578;8.138;2023-05-07T02:11:03;37.75;;;23.08;;
20411;SDS011;10365;52.578;8.138;2023-05-07T02:13:31;38.97;;;23.25;;
20411;SDS011;10365;52.578;8.138;2023-05-07T02:15:57;38.75;;;22.58;;
20411;SDS011;10365;52.578;8.138;2023-05-07T02:18:23;34.40;;;22.08;;
20411;SDS011;10365;52.578;8.138;2023-05-07T02:20:48;40.05;;;23.33;;
20411;SDS011;10365;52.578;8.138;2023-05-07T02:23:14;36.05;;;22.88;;
20411;SDS011;10365;52.578;8.138;2023-05-07T02:25:40;39.15;;;22.15;;
20411;SDS011;10365;52.578;8.138;2023-05-07T02:28:05;37.58;;;21.88;;
20411;SDS011;10365;52.578;8.138;2023-05-07T02:30:51;40.35;;;23.55;;
20411;SDS011;10365;52.578;8.138;2023-05-07T02:33:16;37.10;;;22.30;;
20411;SDS011;10365;52.578;8.138;2023-05-07T02:35:42;36.58;;;21.90;;
20411;SDS011;10365;52.578;8.138;2023-05-07T02:38:07;39.85;;;23.55;;
20411;SDS011;10365;52.578;8.138;2023-05-07T02:40:36;39.75;;;24.13;;
20411;SDS011;10365;52.578;8.138;2023-05-07T02:43:04;37.85;;;22.98;;
20411;SDS011;10365;52.578;8.138;2023-05-07T02:45:31;39.70;;;23.70;;
20411;SDS011;10365;52.578;8.138;2023-05-07T02:47:56;39.47;;;24.52;;
20411;SDS011;10365;52.578;8.138;2023-05-07T02:50:22;38.22;;;24.52;;
20411;SDS011;10365;52.578;8.138;2023-05-07T02:52:47;40.65;;;24.85;;
20411;SDS011;10365;52.578;8.138;2023-05-07T02:55:13;43.35;;;25.65;;
20411;SDS011;10365;52.578;8.138;2023-05-07T02:57:38;39.35;;;24.17;;
20411;SDS011;10365;52.578;8.138;2023-05-07T03:00:12;40.75;;;25.58;;
20411;SDS011;10365;52.578;8.138;2023-05-07T03:02:39;40.83;;;25.85;;
20411;SDS011;10365;52.578;8.138;2023-05-07T03:05:05;41.55;;;24.40;;
20411;SDS011;10365;52.578;8.138;2023-05-07T03:07:31;45.80;;;25.70;;
20411;SDS011;10365;52.578;8.138;2023-05-07T03:09:56;41.55;;;25.45;;
20411;SDS011;10365;52.578;8.138;2023-05-07T03:12:22;41.15;;;26.00;;
20411;SDS011;10365;52.578;8.138;2023-05-07T03:14:47;41.05;;;26.23;;
20411;SDS011;10365;52.578;8.138;2023-05-07T03:17:13;42.90;;;24.95;;
20411;SDS011;10365;52.578;8.138;2023-05-07T03:19:38;42.65;;;25.83;;
20411;SDS011;10365;52.578;8.138;2023-05-07T03:22:03;49.25;;;27.42;;
20411;SDS011;10365;52.578;8.138;2023-05-07T03:24:29;42.17;;;26.73;;
20411;SDS011;10365;52.578;8.138;2023-05-07T03:26:54;45.13;;;26.70;;
20411;SDS011;10365;52.578;8.138;2023-05-07T03:29:19;49.70;;;27.98;;
20411;SDS011;10365;52.578;8.138;2023-05-07T03:31:45;51.25;;;28.40;;
20411;SDS011;10365;52.578;8.138;2023-05-07T03:34:10;51.38;;;28.42;;
20411;SDS011;10365;52.578;8.138;2023-05-07T03:36:36;50.45;;;29.08;;
20411;SDS011;10365;52.578;8.138;2023-05-07T03:39:03;47.63;;;28.33;;
20411;SDS011;10365;52.578;8.138;2023-05-07T03:41:35;50.58;;;29.15;;
20411;SDS011;10365;52.578;8.138;2023-05-07T03:44:01;48.67;;;28.42;;
20411;SDS011;10365;52.578;8.138;2023-05-07T03:46:26;53.45;;;28.77;;
20411;SDS011;10365;52.578;8.138;2023-05-07T03:48:53;49.53;;;29.25;;
20411;SDS011;10365;52.578;8.138;2023-05-07T03:51:19;51.05;;;28.52;;
20411;SDS011;10365;52.578;8.138;2023-05-07T03:53:45;54.40;;;30.15;;
20411;SDS011;10365;52.578;8.138;2023-05-07T03:56:10;53.22;;;29.75;;
20411;SDS011;10365;52.578;8.138;2023-05-07T03:58:38;56.10;;;29.65;;
20411;SDS011;10365;52.578;8.138;2023-05-07T04:01:07;53.08;;;28.65;;
20411;SDS011;10365;52.578;8.138;2023-05-07T04:03:32;52.80;;;29.70;;
20411;SDS011;10365;52.578;8.138;2023-05-07T04:05:59;55.58;;;29.13;;
20411;SDS011;10365;52.578;8.138;2023-05-07T04:08:25;55.42;;;30.08;;
20411;SDS011;10365;52.578;8.138;2023-05-07T04:10:58;53.10;;;29.48;;
20411;SDS011;10365;52.578;8.138;2023-05-07T04:13:27;50.60;;;27.70;;
20411;SDS011;10365;52.578;8.138;2023-05-07T04:15:54;60.25;;;29.27;;
20411;SDS011;10365;52.578;8.138;2023-05-07T04:18:20;47.20;;;27.92;;
20411;SDS011;10365;52.578;8.138;2023-05-07T04:20:48;52.92;;;28.63;;
20411;SDS011;10365;52.578;8.138;2023-05-07T04:23:16;54.30;;;30.77;;
20411;SDS011;10365;52.578;8.138;2023-05-07T04:25:42;49.47;;;30.02;;
20411;SDS011;10365;52.578;8.138;2023-05-07T04:28:30;54.45;;;29.92;;
20411;SDS011;10365;52.578;8.138;2023-05-07T04:30:57;52.53;;;30.00;;
20411;SDS011;10365;52.578;8.138;2023-05-07T04:33:22;60.25;;;30.40;;
20411;SDS011;10365;52.578;8.138;2023-05-07T04:35:49;57.63;;;29.02;;
20411;SDS011;10365;52.578;8.138;2023-05-07T04:38:14;53.72;;;30.98;;
20411;SDS011;10365;52.578;8.138;2023-05-07T04:40:40;51.42;;;29.38;;
20411;SDS011;10365;52.578;8.138;2023-05-07T04:43:08;53.65;;;30.23;;
20411;SDS011;10365;52.578;8.138;2023-05-07T04:45:40;50.88;;;29.63;;
20411;SDS011;10365;52.578;8.138;2023-05-07T04:48:07;55.53;;;29.20;;
20411;SDS011;10365;52.578;8.138;2023-05-07T04:50:33;51.67;;;29.23;;
20411;SDS011;10365;52.578;8.138;2023-05-07T04:53:01;45.53;;;28.08;;
20411;SDS011;10365;52.578;8.138;2023-05-07T04:55:26;47.42;;;26.55;;
20411;SDS011;10365;52.578;8.138;2023-05-07T04:57:52;49.78;;;26.85;;
20411;SDS011;10365;52.578;8.138;2023-05-07T05:00:18;49.90;;;27.65;;
20411;SDS011;10365;52.578;8.138;2023-05-07T05:02:45;46.58;;;27.70;;
20411;SDS011;10365;52.578;8.138;2023-05-07T05:05:14;46.38;;;26.38;;
20411;SDS011;10365;52.578;8.138;2023-05-07T05:07:40;45.00;;;27.58;;
20411;SDS011;10365;52.578;8.138;2023-05-07T05:10:06;51.65;;;27.52;;
20411;SDS011;10365;52.578;8.138;2023-05-07T05:12:34;49.25;;;27.35;;
20411;SDS011;10365;52.578;8.138;2023-05-07T05:15:00;48.70;;;26.60;;
20411;SDS011;10365;52.578;8.138;2023-05-07T05:17:27;49.88;;;26.63;;
20411;SDS011;10365;52.578;8.138;2023-05-07T05:19:52;46.13;;;26.50;;
20411;SDS011;10365;52.578;8.138;2023-05-07T05:22:18;44.60;;;24.08;;
20411;SDS011;10365;52.578;8.138;2023-05-07T05:24:43;42.17;;;24.70;;
20411;SDS011;10365;52.578;8.138;2023-05-07T05:27:09;38.55;;;23.30;;
20411;SDS011;10365;52.578;8.138;2023-05-07T05:29:34;44.40;;;23.73;;
20411;SDS011;10365;52.578;8.138;2023-05-07T05:32:00;40.25;;;22.90;;
20411;SDS011;10365;52.578;8.138;2023-05-07T05:34:28;37.20;;;22.23;;
20411;SDS011;10365;52.578;8.138;2023-05-07T05:36:54;34.97;;;20.92;;
20411;SDS011;10365;52.578;8.138;2023-05-07T05:39:19;37.83;;;22.38;;
20411;SDS011;10365;52.578;8.138;2023-05-07T05:41:46;34.92;;;20.35;;
20411;SDS011;10365;52.578;8.138;2023-05-07T05:44:13;40.40;;;22.35;;
20411;SDS011;10365;52.578;8.138;2023-05-07T05:46:40;37.20;;;20.92;;
20411;SDS011;10365;52.578;8.138;2023-05-07T05:49:06;36.83;;;21.33;;
20411;SDS011;10365;52.578;8.138;2023-05-07T05:51:32;34.33;;;19.77;;
20411;SDS011;10365;52.578;8.138;2023-05-07T05:53:57;34.75;;;20.70;;
20411;SDS011;10365;52.578;8.138;2023-05-07T05:56:22;36.10;;;20.58;;
20411;SDS011;10365;52.578;8.138;2023-05-07T05:58:48;33.25;;;20.20;;
20411;SDS011;10365;52.578;8.138;2023-05-07T06:01:13;36.67;;;20.48;;
20411;SDS011;10365;52.578;8.138;2023-05-07T06:03:39;35.53;;;20.75;;
20411;SDS011;10365;52.578;8.138;2023-05-07T06:06:10;38.33;;;21.30;;
20411;SDS011;10365;52.578;8.138;2023-05-07T06:08:36;36.63;;;20.77;;
20411;SDS011;10365;52.578;8.138;2023-05-07T06:11:02;33.97;;;20.35;;
20411;SDS011;10365;52.578;8.138;2023-05-07T06:13:30;30.85;;;19.33;;
20411;SDS011;10365;52.578;8.138;2023-05-07T06:15:55;32.90;;;20.55;;
20411;SDS011;10365;52.578;8.138;2023-05-07T06:18:21;30.75;;;19.95;;
20411;SDS011;10365;52.578;8.138;2023-05-07T06:20:46;30.73;;;19.15;;
20411;SDS011;10365;52.578;8.138;2023-05-07T06:23:20;28.73;;;18.73;;
20411;SDS011;10365;52.578;8.138;2023-05-07T06:25:49;30.58;;;18.30;;
20411;SDS011;10365;52.578;8.138;2023-05-07T06:28:15;30.10;;;17.90;;
20411;SDS011;10365;52.578;8.138;2023-05-07T06:30:41;26.48;;;17.52;;
20411;SDS011;10365;52.578;8.138;2023-05-07T06:33:07;32.40;;;17.48;;
20411;SDS011;10365;52.578;8.138;2023-05-07T06:35:32;25.80;;;16.88;;
20411;SDS011;10365;52.578;8.138;2023-05-07T06:37:58;28.60;;;18.88;;
20411;SDS011;10365;52.578;8.138;2023-05-07T06:40:26;32.72;;;18.70;;
20411;SDS011;10365;52.578;8.138;2023-05-07T06:42:51;26.75;;;17.05;;
20411;SDS011;10365;52.578;8.138;2023-05-07T06:45:49;27.25;;;18.02;;
20411;SDS011;10365;52.578;8.138;2023-05-07T06:48:15;28.27;;;18.10;;
20411;SDS011;10365;52.578;8.138;2023-05-07T06:50:51;30.25;;;18.42;;
20411;SDS011;10365;52.578;8.138;2023-05-07T06:53:17;32.97;;;17.73;;
20411;SDS011;10365;52.578;8.138;2023-05-07T06:55:43;28.25;;;18.17;;
20411;SDS011;10365;52.578;8.138;2023-05-07T06:58:10;30.48;;;19.00;;
20411;SDS011;10365;52.578;8.138;2023-05-07T07:00:36;33.67;;;18.35;;
20411;SDS011;10365;52.578;8.138;2023-05-07T07:03:02;29.85;;;18.13;;
20411;SDS011;10365;52.578;8.138;2023-05-07T07:05:30;27.65;;;17.05;;
20411;SDS011;10365;52.578;8.138;2023-05-07T07:07:57;30.77;;;18.90;;
20411;SDS011;10365;52.578;8.138;2023-05-07T07:10:22;28.60;;;17.38;;
20411;SDS011;10365;52.578;8.138;2023-05-07T07:12:49;27.90;;;18.15;;
20411;SDS011;10365;52.578;8.138;2023-05-07T07:15:15;26.25;;;18.10;;
20411;SDS011;10365;52.578;8.138;2023-05-07T07:17:41;32.30;;;19.52;;
20411;SDS011;10365;52.578;8.138;2023-05-07T07:20:06;27.30;;;17.48;;
20411;SDS011;10365;52.578;8.138;2023-05-07T07:22:32;33.30;;;19.33;;
20411;SDS011;10365;52.578;8.138;2023-05-07T07:24:58;31.33;;;18.73;;
20411;SDS011;10365;52.578;8.138;2023-05-07T07:27:23;29.58;;;19.52;;
20411;SDS011;10365;52.578;8.138;2023-05-07T07:29:49;33.55;;;19.23;;
20411;SDS011;10365;52.578;8.138;2023-05-07T07:32:14;32.25;;;20.23;;
20411;SDS011;10365;52.578;8.138;2023-05-07T07:34:40;29.42;;;19.48;;
20411;SDS011;10365;52.578;8.138;2023-05-07T07:37:06;36.42;;;20.42;;
20411;SDS011;10365;52.578;8.138;2023-05-07T07:39:33;33.22;;;18.95;;
20411;SDS011;10365;52.578;8.138;2023-05-07T07:41:59;35.55;;;21.30;;
20411;SDS011;10365;52.578;8.138;2023-05-07T07:44:27;32.33;;;20.20;;
20411;SDS011;10365;52.578;8.138;2023-05-07T07:46:57;31.83;;;19.73;;
20411;SDS011;10365;52.578;8.138;2023-05-07T07:49:25;28.70;;;19.65;;
20411;SDS011;10365;52.578;8.138;2023-05-07T07:51:50;29.58;;;19.52;;
20411;SDS011;10365;52.578;8.138;2023-05-07T07:54:16;32.55;;;19.38;;
20411;SDS011;10365;52.578;8.138;2023-05-07T07:56:43;33.10;;;19.33;;
20411;SDS011;10365;52.578;8.138;2023-05-07T07:59:10;34.45;;;19.55;;
20411;SDS011;10365;52.578;8.138;2023-05-07T08:01:38;27.45;;;19.13;;
20411;SDS011;10365;52.578;8.138;2023-05-07T08:04:04;32.22;;;19.95;;
20411;SDS011;10365;52.578;8.138;2023-05-07T08:06:34;26.02;;;18.40;;
20411;SDS011;10365;52.578;8.138;2023-05-07T08:09:00;29.02;;;18.55;;
20411;SDS011;10365;52.578;8.138;2023-05-07T08:11:26;32.20;;;19.52;;
20411;SDS011;10365;52.578;8.138;2023-05-07T08:13:53;29.95;;;18.42;;
20411;SDS011;10365;52.578;8.138;2023-05-07T08:16:18;29.80;;;18.65;;
20411;SDS011;10365;52.578;8.138;2023-05-07T08:18:44;27.63;;;18.85;;
20411;SDS011;10365;52.578;8.138;2023-05-07T08:21:10;28.45;;;18.98;;
20411;SDS011;10365;52.578;8.138;2023-05-07T08:23:36;25.85;;;18.20;;
20411;SDS011;10365;52.578;8.138;2023-05-07T08:26:02;23.77;;;17.08;;
20411;SDS011;10365;52.578;8.138;2023-05-07T08:28:29;26.90;;;18.02;;
20411;SDS011;10365;52.578;8.138;2023-05-07T08:30:55;24.88;;;17.65;;
20411;SDS011;10365;52.578;8.138;2023-05-07T08:33:22;25.30;;;17.95;;
20411;SDS011;10365;52.578;8.138;2023-05-07T08:35:47;26.08;;;17.52;;
20411;SDS011;10365;52.578;8.138;2023-05-07T08:38:14;26.13;;;18.35;;
20411;SDS011;10365;52.578;8.138;2023-05-07T08:40:40;24.85;;;18.17;;
20411;SDS011;10365;52.578;8.138;2023-05-07T08:43:12;28.63;;;17.45;;
20411;SDS011;10365;52.578;8.138;2023-05-07T08:45:38;27.15;;;17.35;;
20411;SDS011;10365;52.578;8.138;2023-05-07T08:48:14;30.00;;;17.17;;
20411;SDS011;10365;52.578;8.138;2023-05-07T08:50:41;21.67;;;16.20;;
20411;SDS011;10365;52.578;8.138;2023-05-07T08:53:06;24.17;;;17.20;;
20411;SDS011;10365;52.578;8.138;2023-05-07T08:55:32;27.75;;;17.58;;
20411;SDS011;10365;52.578;8.138;2023-05-07T08:57:59;26.48;;;17.73;;
20411;SDS011;10365;52.578;8.138;2023-05-07T09:00:24;26.13;;;17.08;;
20411;SDS011;10365;52.578;8.138;2023-05-07T09:02:52;28.92;;;16.98;;
20411;SDS011;10365;52.578;8.138;2023-05-07T09:05:19;27.83;;;16.10;;
20411;SDS011;10365;52.578;8.138;2023-05-07T09:07:45;21.70;;;15.73;;
20411;SDS011;10365;52.578;8.138;2023-05-07T09:10:12;25.45;;;16.10;;
20411;SDS011;10365;52.578;8.138;2023-05-07T09:12:39;27.33;;;16.48;;
20411;SDS011;10365;52.578;8.138;2023-05-07T09:15:06;29.20;;;16.67;;
20411;SDS011;10365;52.578;8.138;2023-05-07T09:17:32;24.15;;;16.17;;
20411;SDS011;10365;52.578;8.138;2023-05-07T09:20:04;21.90;;;16.38;;
20411;SDS011;10365;52.578;8.138;2023-05-07T09:22:31;25.10;;;16.73;;
20411;SDS011;10365;52.578;8.138;2023-05-07T09:25:01;20.60;;;15.02;;
20411;SDS011;10365;52.578;8.138;2023-05-07T09:27:27;21.80;;;15.85;;
20411;SDS011;10365;52.578;8.138;2023-05-07T09:29:57;26.73;;;15.35;;
20411;SDS011;10365;52.578;8.138;2023-05-07T09:32:22;23.67;;;14.95;;
20411;SDS011;10365;52.578;8.138;2023-05-07T09:34:48;20.85;;;14.32;;
20411;SDS011;10365;52.578;8.138;2023-05-07T09:37:16;16.83;;;13.30;;
20411;SDS011;10365;52.578;8.138;2023-05-07T09:39:44;18.92;;;13.23;;
20411;SDS011;10365;52.578;8.138;2023-05-07T09:42:12;22.38;;;13.85;;
20411;SDS011;10365;52.578;8.138;2023-05-07T09:44:38;16.25;;;12.88;;
20411;SDS011;10365;52.578;8.138;2023-05-07T09:47:09;16.17;;;13.00;;
20411;SDS011;10365;52.578;8.138;2023-05-07T09:49:40;16.83;;;12.90;;
20411;SDS011;10365;52.578;8.138;2023-05-07T09:52:10;22.35;;;12.73;;
20411;SDS011;10365;52.578;8.138;2023-05-07T09:54:40;17.05;;;13.48;;
20411;SDS011;10365;52.578;8.138;2023-05-07T09:57:09;19.30;;;14.35;;
20411;SDS011;10365;52.578;8.138;2023-05-07T09:59:36;18.00;;;12.80;;
20411;SDS011;10365;52.578;8.138;2023-05-07T10:02:05;13.70;;;12.00;;
20411;SDS011;10365;52.578;8.138;2023-05-07T10:04:37;15.02;;;12.43;;
20411;SDS011;10365;52.578;8.138;2023-05-07T10:07:03;15.02;;;12.27;;
20411;SDS011;10365;52.578;8.138;2023-05-07T10:09:30;15.43;;;12.00;;
20411;SDS011;10365;52.578;8.138;2023-05-07T10:11:56;17.67;;;12.00;;
20411;SDS011;10365;52.578;8.138;2023-05-07T10:14:22;14.85;;;12.48;;
20411;SDS011;10365;52.578;8.138;2023-05-07T10:16:49;12.45;;;10.93;;
20411;SDS011;10365;52.578;8.138;2023-05-07T10:19:15;13.45;;;11.27;;
20411;SDS011;10365;52.578;8.138;2023-05-07T10:21:44;12.45;;;10.50;;
20411;SDS011;10365;52.578;8.138;2023-05-07T10:24:16;13.18;;;11.18;;
20411;SDS011;10365;52.578;8.138;2023-05-07T10:26:46;12.40;;;10.57;;
20411;SDS011;10365;52.578;8.138;2023-05-07T10:29:18;11.68;;;9.20;;
20411;SDS011;10365;52.578;8.138;2023-05-07T10:34:23;11.70;;;9.63;;
20411;SDS011;10365;52.578;8.138;2023-05-07T10:36:49;14.15;;;10.27;;
20411;SDS011;10365;52.578;8.138;2023-05-07T10:39:17;12.13;;;9.63;;
20411;SDS011;10365;52.578;8.138;2023-05-07T10:41:43;11.90;;;10.55;;
20411;SDS011;10365;52.578;8.138;2023-05-07T10:44:09;13.43;;;10.45;;
20411;SDS011;10365;52.578;8.138;2023-05-07T10:46:36;14.20;;;10.15;;
20411;SDS011;10365;52.578;8.138;2023-05-07T10:49:08;11.60;;;9.52;;
20411;SDS011;10365;52.578;8.138;2023-05-07T10:55:18;13.32;;;10.43;;
20411;SDS011;10365;52.578;8.138;2023-05-07T10:58:34;14.10;;;10.85;;
20411;SDS011;10365;52.578;8.138;2023-05-07T11:01:11;11.85;;;10.02;;
20411;SDS011;10365;52.578;8.138;2023-05-07T11:06:24;12.85;;;10.88;;
20411;SDS011;10365;52.578;8.138;2023-05-07T11:08:59;12.65;;;10.63;;
20411;SDS011;10365;52.578;8.138;2023-05-07T11:11:50;12.27;;;10.57;;
20411;SDS011;10365;52.578;8.138;2023-05-07T11:14:46;12.20;;;10.65;;
20411;SDS011;10365;52.578;8.138;2023-05-07T11:17:18;15.00;;;12.05;;
20411;SDS011;10365;52.578;8.138;2023-05-07T11:19:51;14.40;;;12.57;;
20411;SDS011;10365;52.578;8.138;2023-05-07T11:25:06;20.88;;;13.88;;
20411;SDS011;10365;52.578;8.138;2023-05-07T11:27:32;16.00;;;12.15;;
20411;SDS011;10365;52.578;8.138;2023-05-07T11:29:57;17.25;;;11.98;;
20411;SDS011;10365;52.578;8.138;2023-05-07T11:32:23;13.55;;;12.15;;
20411;SDS011;10365;52.578;8.138;2023-05-07T11:34:51;13.95;;;12.43;;
20411;SDS011;10365;52.578;8.138;2023-05-07T11:37:19;14.07;;;12.43;;
20411;SDS011;10365;52.578;8.138;2023-05-07T11:40:07;15.88;;;12.82;;
20411;SDS011;10365;52.578;8.138;2023-05-07T11:42:33;13.82;;;12.32;;
20411;SDS011;10365;52.578;8.138;2023-05-07T11:44:59;17.50;;;13.38;;
20411;SDS011;10365;52.578;8.138;2023-05-07T11:47:25;14.32;;;12.55;;
20411;SDS011;10365;52.578;8.138;2023-05-07T11:49:52;15.05;;;13.05;;
20411;SDS011;10365;52.578;8.138;2023-05-07T11:52:18;16.23;;;13.68;;
20411;SDS011;10365;52.578;8.138;2023-05-07T11:54:54;15.73;;;13.68;;
20411;SDS011;10365;52.578;8.138;2023-05-07T11:57:20;18.00;;;14.15;;
20411;SDS011;10365;52.578;8.138;2023-05-07T11:59:46;18.23;;;14.60;;
20411;SDS011;10365;52.578;8.138;2023-05-07T12:02:16;16.55;;;14.32;;
20411;SDS011;10365;52.578;8.138;2023-05-07T12:04:42;17.23;;;14.13;;
20411;SDS011;10365;52.578;8.138;2023-05-07T12:07:11;17.00;;;13.73;;
20411;SDS011;10365;52.578;8.138;2023-05-07T12:09:36;14.80;;;13.30;;
20411;SDS011;10365;52.578;8.138;2023-05-07T12:12:03;15.82;;;14.02;;
20411;SDS011;10365;52.578;8.138;2023-05-07T12:14:28;16.88;;;13.98;;
20411;SDS011;10365;52.578;8.138;2023-05-07T12:16:58;17.90;;;14.05;;
20411;SDS011;10365;52.578;8.138;2023-05-07T12:19:24;16.20;;;14.07;;
20411;SDS011;10365;52.578;8.138;2023-05-07T12:21:50;22.42;;;13.98;;
20411;SDS011;10365;52.578;8.138;2023-05-07T12:24:16;19.70;;;14.55;;
20411;SDS011;10365;52.578;8.138;2023-05-07T12:26:41;16.25;;;14.23;;
20411;SDS011;10365;52.578;8.138;2023-05-07T12:29:08;17.73;;;14.90;;
20411;SDS011;10365;52.578;8.138;2023-05-07T12:31:33;23.08;;;15.90;;
20411;SDS011;10365;52.578;8.138;2023-05-07T12:33:59;20.63;;;15.95;;
20411;SDS011;10365;52.578;8.138;2023-05-07T12:36:24;18.80;;;15.30;;
20411;SDS011;10365;52.578;8.138;2023-05-07T12:38:51;19.67;;;14.65;;
20411;SDS011;10365;52.578;8.138;2023-05-07T12:41:16;16.77;;;13.90;;
20411;SDS011;10365;52.578;8.138;2023-05-07T12:43:44;18.40;;;14.40;;
20411;SDS011;10365;52.578;8.138;2023-05-07T12:46:11;17.85;;;13.73;;
20411;SDS011;10365;52.578;8.138;2023-05-07T12:48:43;16.48;;;13.70;;
20411;SDS011;10365;52.578;8.138;2023-05-07T12:51:08;14.88;;;12.88;;
20411;SDS011;10365;52.578;8.138;2023-05-07T12:53:39;20.98;;;13.40;;
20411;SDS011;10365;52.578;8.138;2023-05-07T12:56:05;20.75;;;14.23;;
20411;SDS011;10365;52.578;8.138;2023-05-07T12:58:33;18.38;;;14.15;;
20411;SDS011;10365;52.578;8.138;2023-05-07T13:00:59;21.45;;;15.32;;
20411;SDS011;10365;52.578;8.138;2023-05-07T13:03:26;20.75;;;16.88;;
20411;SDS011;10365;52.578;8.138;2023-05-07T13:05:52;20.70;;;17.00;;
20411;SDS011;10365;52.578;8.138;2023-05-07T13:08:24;23.60;;;16.70;;
20411;SDS011;10365;52.578;8.138;2023-05-07T13:10:50;17.83;;;15.90;;
20411;SDS011;10365;52.578;8.138;2023-05-07T13:13:16;25.58;;;15.85;;
20411;SDS011;10365;52.578;8.138;2023-05-07T13:15:41;20.70;;;16.52;;
20411;SDS011;10365;52.578;8.138;2023-05-07T13:18:07;19.48;;;16.10;;
20411;SDS011;10365;52.578;8.138;2023-05-07T13:20:32;21.55;;;16.02;;
20411;SDS011;10365;52.578;8.138;2023-05-07T13:22:57;19.08;;;15.27;;
20411;SDS011;10365;52.578;8.138;2023-05-07T13:25:23;18.77;;;16.77;;
20411;SDS011;10365;52.578;8.138;2023-05-07T13:27:48;17.25;;;14.43;;
20411;SDS011;10365;52.578;8.138;2023-05-07T13:30:14;19.85;;;14.90;;
20411;SDS011;10365;52.578;8.138;2023-05-07T13:32:39;18.60;;;15.82;;
20411;SDS011;10365;52.578;8.138;2023-05-07T13:35:05;18.48;;;15.20;;
20411;SDS011;10365;52.578;8.138;2023-05-07T13:37:31;20.80;;;16.02;;
20411;SDS011;10365;52.578;8.138;2023-05-07T13:39:56;18.13;;;15.30;;
20411;SDS011;10365;52.578;8.138;2023-05-07T13:42:21;17.13;;;14.20;;
20411;SDS011;10365;52.578;8.138;2023-05-07T13:44:47;17.17;;;13.50;;
20411;SDS011;10365;52.578;8.138;2023-05-07T13:47:13;21.23;;;14.05;;
20411;SDS011;10365;52.578;8.138;2023-05-07T13:49:38;15.68;;;13.13;;
20411;SDS011;10365;52.578;8.138;2023-05-07T13:52:04;16.83;;;13.57;;
20411;SDS011;10365;52.578;8.138;2023-05-07T13:54:32;16.20;;;13.93;;
20411;SDS011;10365;52.578;8.138;2023-05-07T13:57:39;16.60;;;14.85;;
20411;SDS011;10365;52.578;8.138;2023-05-07T14:00:13;17.48;;;14.73;;
20411;SDS011;10365;52.578;8.138;2023-05-07T14:02:44;15.32;;;13.73;;
20411;SDS011;10365;52.578;8.138;2023-05-07T14:05:19;15.60;;;13.98;;
20411;SDS011;10365;52.578;8.138;2023-05-07T14:07:54;20.33;;;14.25;;
20411;SDS011;10365;52.578;8.138;2023-05-07T14:10:49;15.10;;;13.23;;
20411;SDS011;10365;52.578;8.138;2023-05-07T14:13:20;17.45;;;12.93;;
20411;SDS011;10365;52.578;8.138;2023-05-07T14:16:04;14.80;;;12.23;;
20411;SDS011;10365;52.578;8.138;2023-05-07T14:19:07;15.75;;;12.93;;
20411;SDS011;10365;52.578;8.138;2023-05-07T14:21:38;14.77;;;11.73;;
20411;SDS011;10365;52.578;8.138;2023-05-07T14:24:07;14.10;;;12.60;;
20411;SDS011;10365;52.578;8.138;2023-05-07T14:26:41;17.67;;;13.65;;
20411;SDS011;10365;52.578;8.138;2023-05-07T14:29:23;14.75;;;13.18;;
20411;SDS011;10365;52.578;8.138;2023-05-07T14:32:13;13.95;;;12.30;;
20411;SDS011;10365;52.578;8.138;2023-05-07T14:34:48;13.98;;;12.13;;
20411;SDS011;10365;52.578;8.138;2023-05-07T14:37:19;16.55;;;13.48;;